sensor_id;sensor_type;location;lat;lon;timestamp;temperature;humidity
65707;SHT31;52423;43.512;5.220;2023-03-14T00:00:13;13.51;81.73
65707;SHT31;52423;43.512;5.220;2023-03-14T00:02:39;13.46;80.94
65707;SHT31;52423;43.512;5.220;2023-03-14T00:05:05;13.24;79.86
65707;SHT31;52423;43.512;5.220;2023-03-14T00:07:35;13.22;79.38
65707;SHT31;52423;43.512;5.220;2023-03-14T00:10:04;13.14;80.48
65707;SHT31;52423;43.512;5.220;2023-03-14T00:12:30;13.16;79.90
65707;SHT31;52423;43.512;5.220;2023-03-14T00:14:55;13.22;81.34
65707;SHT31;52423;43.512;5.220;2023-03-14T00:17:21;13.13;80.52
65707;SHT31;52423;43.512;5.220;2023-03-14T00:19:52;13.20;81.86
65707;SHT31;52423;43.512;5.220;2023-03-14T00:22:19;13.13;80.03
65707;SHT31;52423;43.512;5.220;2023-03-14T00:24:50;13.23;79.95
65707;SHT31;52423;43.512;5.220;2023-03-14T00:27:15;13.10;79.57
65707;SHT31;52423;43.512;5.220;2023-03-14T00:29:42;12.95;82.09
65707;SHT31;52423;43.512;5.220;2023-03-14T00:32:07;12.92;83.72
65707;SHT31;52423;43.512;5.220;2023-03-14T00:34:33;12.82;85.36
65707;SHT31;52423;43.512;5.220;2023-03-14T00:36:58;12.76;85.21
65707;SHT31;52423;43.512;5.220;2023-03-14T00:39:24;12.86;86.18
65707;SHT31;52423;43.512;5.220;2023-03-14T00:41:49;12.75;85.66
65707;SHT31;52423;43.512;5.220;2023-03-14T00:44:20;12.56;86.71
65707;SHT31;52423;43.512;5.220;2023-03-14T00:46:46;12.52;86.43
65707;SHT31;52423;43.512;5.220;2023-03-14T00:49:11;12.48;86.58
65707;SHT31;52423;43.512;5.220;2023-03-14T00:51:36;12.28;85.77
65707;SHT31;52423;43.512;5.220;2023-03-14T00:54:02;12.44;87.56
65707;SHT31;52423;43.512;5.220;2023-03-14T00:56:27;12.37;86.45
65707;SHT31;52423;43.512;5.220;2023-03-14T00:58:54;12.34;87.62
65707;SHT31;52423;43.512;5.220;2023-03-14T01:01:20;12.44;87.35
65707;SHT31;52423;43.512;5.220;2023-03-14T01:03:55;12.34;86.53
65707;SHT31;52423;43.512;5.220;2023-03-14T01:06:25;12.51;86.73
65707;SHT31;52423;43.512;5.220;2023-03-14T01:08:51;12.28;86.62
65707;SHT31;52423;43.512;5.220;2023-03-14T01:11:23;12.38;87.31
65707;SHT31;52423;43.512;5.220;2023-03-14T01:13:49;12.55;86.43
65707;SHT31;52423;43.512;5.220;2023-03-14T01:16:18;12.49;86.35
65707;SHT31;52423;43.512;5.220;2023-03-14T01:18:45;12.40;87.35
65707;SHT31;52423;43.512;5.220;2023-03-14T01:21:25;12.41;87.23
65707;SHT31;52423;43.512;5.220;2023-03-14T01:23:52;12.49;87.43
65707;SHT31;52423;43.512;5.220;2023-03-14T01:26:22;12.34;87.01
65707;SHT31;52423;43.512;5.220;2023-03-14T01:28:50;12.51;86.64
65707;SHT31;52423;43.512;5.220;2023-03-14T01:31:16;12.27;87.09
65707;SHT31;52423;43.512;5.220;2023-03-14T01:33:42;12.18;86.86
65707;SHT31;52423;43.512;5.220;2023-03-14T01:36:08;12.18;87.06
65707;SHT31;52423;43.512;5.220;2023-03-14T01:38:35;12.16;87.50
65707;SHT31;52423;43.512;5.220;2023-03-14T01:41:04;12.03;87.77
65707;SHT31;52423;43.512;5.220;2023-03-14T01:43:30;12.03;87.02
65707;SHT31;52423;43.512;5.220;2023-03-14T01:54:19;11.86;86.80
65707;SHT31;52423;43.512;5.220;2023-03-14T01:56:50;11.79;86.80
65707;SHT31;52423;43.512;5.220;2023-03-14T01:59:30;11.66;87.95
65707;SHT31;52423;43.512;5.220;2023-03-14T02:01:57;11.58;88.10
65707;SHT31;52423;43.512;5.220;2023-03-14T02:04:23;11.44;88.70
65707;SHT31;52423;43.512;5.220;2023-03-14T02:07:12;11.52;87.91
65707;SHT31;52423;43.512;5.220;2023-03-14T02:09:42;11.33;88.13
65707;SHT31;52423;43.512;5.220;2023-03-14T02:12:08;11.25;88.65
65707;SHT31;52423;43.512;5.220;2023-03-14T02:14:36;11.14;89.28
65707;SHT31;52423;43.512;5.220;2023-03-14T02:17:04;11.16;89.06
65707;SHT31;52423;43.512;5.220;2023-03-14T02:22:13;11.23;88.93
65707;SHT31;52423;43.512;5.220;2023-03-14T02:27:26;11.38;88.83
65707;SHT31;52423;43.512;5.220;2023-03-14T02:29:58;11.22;87.65
65707;SHT31;52423;43.512;5.220;2023-03-14T02:32:26;11.11;88.20
65707;SHT31;52423;43.512;5.220;2023-03-14T02:34:55;11.18;88.31
65707;SHT31;52423;43.512;5.220;2023-03-14T02:37:36;11.23;87.46
65707;SHT31;52423;43.512;5.220;2023-03-14T02:40:07;11.19;87.95
65707;SHT31;52423;43.512;5.220;2023-03-14T02:42:32;11.12;87.77
65707;SHT31;52423;43.512;5.220;2023-03-14T02:47:32;11.00;88.06
65707;SHT31;52423;43.512;5.220;2023-03-14T02:50:12;11.07;88.41
65707;SHT31;52423;43.512;5.220;2023-03-14T02:52:39;11.08;87.75
65707;SHT31;52423;43.512;5.220;2023-03-14T02:55:05;11.05;87.96
65707;SHT31;52423;43.512;5.220;2023-03-14T02:57:33;11.04;87.75
65707;SHT31;52423;43.512;5.220;2023-03-14T02:59:59;11.00;87.59
65707;SHT31;52423;43.512;5.220;2023-03-14T03:02:26;11.07;87.49
65707;SHT31;52423;43.512;5.220;2023-03-14T03:04:51;11.11;87.20
65707;SHT31;52423;43.512;5.220;2023-03-14T03:07:16;11.07;86.53
65707;SHT31;52423;43.512;5.220;2023-03-14T03:09:42;11.15;87.02
65707;SHT31;52423;43.512;5.220;2023-03-14T03:12:07;11.11;86.01
65707;SHT31;52423;43.512;5.220;2023-03-14T03:14:32;11.15;86.22
65707;SHT31;52423;43.512;5.220;2023-03-14T03:16:58;11.29;85.69
65707;SHT31;52423;43.512;5.220;2023-03-14T03:19:23;11.23;85.35
65707;SHT31;52423;43.512;5.220;2023-03-14T03:21:49;11.08;85.85
65707;SHT31;52423;43.512;5.220;2023-03-14T03:24:14;11.14;85.70
65707;SHT31;52423;43.512;5.220;2023-03-14T03:26:45;10.73;86.69
65707;SHT31;52423;43.512;5.220;2023-03-14T03:29:14;10.97;86.08
65707;SHT31;52423;43.512;5.220;2023-03-14T03:31:39;11.00;86.17
65707;SHT31;52423;43.512;5.220;2023-03-14T03:34:04;10.97;86.54
65707;SHT31;52423;43.512;5.220;2023-03-14T03:36:30;10.85;86.16
65707;SHT31;52423;43.512;5.220;2023-03-14T03:38:56;10.85;85.92
65707;SHT31;52423;43.512;5.220;2023-03-14T03:41:21;10.61;87.26
65707;SHT31;52423;43.512;5.220;2023-03-14T03:43:47;10.60;87.02
65707;SHT31;52423;43.512;5.220;2023-03-14T03:46:18;10.40;86.88
65707;SHT31;52423;43.512;5.220;2023-03-14T03:48:43;10.36;87.29
65707;SHT31;52423;43.512;5.220;2023-03-14T03:51:13;10.13;88.04
65707;SHT31;52423;43.512;5.220;2023-03-14T03:53:39;10.23;88.52
65707;SHT31;52423;43.512;5.220;2023-03-14T03:56:04;10.03;87.78
65707;SHT31;52423;43.512;5.220;2023-03-14T03:58:42;9.95;88.59
65707;SHT31;52423;43.512;5.220;2023-03-14T04:01:08;10.13;87.17
65707;SHT31;52423;43.512;5.220;2023-03-14T04:03:35;10.20;87.20
65707;SHT31;52423;43.512;5.220;2023-03-14T04:06:01;10.24;87.15
65707;SHT31;52423;43.512;5.220;2023-03-14T04:08:27;10.42;86.54
65707;SHT31;52423;43.512;5.220;2023-03-14T04:11:02;10.26;85.86
65707;SHT31;52423;43.512;5.220;2023-03-14T04:13:28;10.42;86.63
65707;SHT31;52423;43.512;5.220;2023-03-14T04:15:54;10.42;86.43
65707;SHT31;52423;43.512;5.220;2023-03-14T04:18:20;10.23;86.44
65707;SHT31;52423;43.512;5.220;2023-03-14T04:20:51;10.17;87.26
65707;SHT31;52423;43.512;5.220;2023-03-14T04:23:19;10.22;86.27
65707;SHT31;52423;43.512;5.220;2023-03-14T04:25:45;10.23;86.62
65707;SHT31;52423;43.512;5.220;2023-03-14T04:28:10;10.09;87.06
65707;SHT31;52423;43.512;5.220;2023-03-14T04:30:36;10.10;86.98
65707;SHT31;52423;43.512;5.220;2023-03-14T04:33:01;10.05;87.45
65707;SHT31;52423;43.512;5.220;2023-03-14T04:35:27;10.06;87.03
65707;SHT31;52423;43.512;5.220;2023-03-14T04:37:52;10.06;86.25
65707;SHT31;52423;43.512;5.220;2023-03-14T04:40:18;10.17;86.78
65707;SHT31;52423;43.512;5.220;2023-03-14T04:42:52;10.13;87.32
65707;SHT31;52423;43.512;5.220;2023-03-14T04:45:17;10.17;86.13
65707;SHT31;52423;43.512;5.220;2023-03-14T04:47:43;10.01;86.98
65707;SHT31;52423;43.512;5.220;2023-03-14T04:50:09;10.16;86.64
65707;SHT31;52423;43.512;5.220;2023-03-14T04:52:35;10.22;86.42
65707;SHT31;52423;43.512;5.220;2023-03-14T04:55:00;10.26;86.76
65707;SHT31;52423;43.512;5.220;2023-03-14T04:57:26;10.17;86.99
65707;SHT31;52423;43.512;5.220;2023-03-14T04:59:51;10.20;86.93
65707;SHT31;52423;43.512;5.220;2023-03-14T05:02:26;10.10;86.91
65707;SHT31;52423;43.512;5.220;2023-03-14T05:04:51;10.22;87.07
65707;SHT31;52423;43.512;5.220;2023-03-14T05:07:25;10.33;86.22
65707;SHT31;52423;43.512;5.220;2023-03-14T05:09:51;10.28;86.27
65707;SHT31;52423;43.512;5.220;2023-03-14T05:12:18;10.33;86.66
65707;SHT31;52423;43.512;5.220;2023-03-14T05:14:44;10.37;85.92
65707;SHT31;52423;43.512;5.220;2023-03-14T05:17:09;10.43;85.69
65707;SHT31;52423;43.512;5.220;2023-03-14T05:19:35;10.34;86.23
65707;SHT31;52423;43.512;5.220;2023-03-14T05:22:01;10.26;85.94
65707;SHT31;52423;43.512;5.220;2023-03-14T05:24:29;10.33;86.48
65707;SHT31;52423;43.512;5.220;2023-03-14T05:27:04;10.47;85.20
65707;SHT31;52423;43.512;5.220;2023-03-14T05:29:30;10.42;85.48
65707;SHT31;52423;43.512;5.220;2023-03-14T05:31:55;10.51;85.30
65707;SHT31;52423;43.512;5.220;2023-03-14T05:34:20;10.54;86.02
65707;SHT31;52423;43.512;5.220;2023-03-14T05:36:46;10.59;85.72
65707;SHT31;52423;43.512;5.220;2023-03-14T05:39:11;10.49;85.61
65707;SHT31;52423;43.512;5.220;2023-03-14T05:41:37;10.24;87.45
65707;SHT31;52423;43.512;5.220;2023-03-14T05:44:02;10.16;87.77
65707;SHT31;52423;43.512;5.220;2023-03-14T05:46:37;10.16;87.15
65707;SHT31;52423;43.512;5.220;2023-03-14T05:49:02;10.33;87.20
65707;SHT31;52423;43.512;5.220;2023-03-14T05:51:27;10.32;87.19
65707;SHT31;52423;43.512;5.220;2023-03-14T05:53:53;10.40;86.99
65707;SHT31;52423;43.512;5.220;2023-03-14T05:56:18;10.40;87.65
65707;SHT31;52423;43.512;5.220;2023-03-14T05:58:44;10.49;86.58
65707;SHT31;52423;43.512;5.220;2023-03-14T06:01:09;10.37;87.43
65707;SHT31;52423;43.512;5.220;2023-03-14T06:03:35;10.47;86.39
65707;SHT31;52423;43.512;5.220;2023-03-14T06:06:09;10.53;87.07
65707;SHT31;52423;43.512;5.220;2023-03-14T06:08:35;10.63;85.00
65707;SHT31;52423;43.512;5.220;2023-03-14T06:11:02;10.67;86.72
65707;SHT31;52423;43.512;5.220;2023-03-14T06:13:28;10.60;87.08
65707;SHT31;52423;43.512;5.220;2023-03-14T06:15:53;10.60;87.57
65707;SHT31;52423;43.512;5.220;2023-03-14T06:18:19;10.67;86.69
65707;SHT31;52423;43.512;5.220;2023-03-14T06:20:44;10.70;87.00
65707;SHT31;52423;43.512;5.220;2023-03-14T06:23:10;10.73;85.59
65707;SHT31;52423;43.512;5.220;2023-03-14T06:25:44;10.70;86.91
65707;SHT31;52423;43.512;5.220;2023-03-14T06:28:09;10.80;85.96
65707;SHT31;52423;43.512;5.220;2023-03-14T06:30:35;10.82;86.40
65707;SHT31;52423;43.512;5.220;2023-03-14T06:33:00;10.87;86.48
65707;SHT31;52423;43.512;5.220;2023-03-14T06:35:25;10.82;86.93
65707;SHT31;52423;43.512;5.220;2023-03-14T06:37:51;10.87;85.94
65707;SHT31;52423;43.512;5.220;2023-03-14T06:40:16;10.94;86.25
65707;SHT31;52423;43.512;5.220;2023-03-14T06:42:44;11.00;86.86
65707;SHT31;52423;43.512;5.220;2023-03-14T06:45:10;11.02;85.97
65707;SHT31;52423;43.512;5.220;2023-03-14T06:47:35;11.02;87.38
65707;SHT31;52423;43.512;5.220;2023-03-14T06:50:01;11.14;86.18
65707;SHT31;52423;43.512;5.220;2023-03-14T06:52:29;11.02;85.28
65707;SHT31;52423;43.512;5.220;2023-03-14T06:54:55;11.02;85.19
65707;SHT31;52423;43.512;5.220;2023-03-14T06:57:20;11.00;85.71
65707;SHT31;52423;43.512;5.220;2023-03-14T06:59:45;11.00;85.35
65707;SHT31;52423;43.512;5.220;2023-03-14T07:02:11;11.01;82.87
65707;SHT31;52423;43.512;5.220;2023-03-14T07:04:40;11.25;82.04
65707;SHT31;52423;43.512;5.220;2023-03-14T07:07:07;11.25;82.70
65707;SHT31;52423;43.512;5.220;2023-03-14T07:09:45;11.22;84.93
65707;SHT31;52423;43.512;5.220;2023-03-14T07:12:16;11.40;81.73
65707;SHT31;52423;43.512;5.220;2023-03-14T07:14:48;11.58;80.16
65707;SHT31;52423;43.512;5.220;2023-03-14T07:17:16;11.63;80.91
65707;SHT31;52423;43.512;5.220;2023-03-14T07:19:47;11.69;83.21
65707;SHT31;52423;43.512;5.220;2023-03-14T07:22:15;11.76;80.40
65707;SHT31;52423;43.512;5.220;2023-03-14T07:24:40;11.72;82.33
65707;SHT31;52423;43.512;5.220;2023-03-14T07:27:07;11.84;81.23
65707;SHT31;52423;43.512;5.220;2023-03-14T07:29:32;11.89;81.24
65707;SHT31;52423;43.512;5.220;2023-03-14T07:31:58;11.98;80.26
65707;SHT31;52423;43.512;5.220;2023-03-14T07:34:23;12.13;80.39
65707;SHT31;52423;43.512;5.220;2023-03-14T07:36:48;12.31;81.56
65707;SHT31;52423;43.512;5.220;2023-03-14T07:39:14;12.28;79.92
65707;SHT31;52423;43.512;5.220;2023-03-14T07:41:39;12.68;78.57
65707;SHT31;52423;43.512;5.220;2023-03-14T07:44:07;12.78;79.23
65707;SHT31;52423;43.512;5.220;2023-03-14T07:46:33;12.76;78.99
65707;SHT31;52423;43.512;5.220;2023-03-14T07:49:04;12.63;79.32
65707;SHT31;52423;43.512;5.220;2023-03-14T07:51:29;12.71;80.34
65707;SHT31;52423;43.512;5.220;2023-03-14T07:53:55;12.71;78.96
65707;SHT31;52423;43.512;5.220;2023-03-14T07:56:20;12.72;80.83
65707;SHT31;52423;43.512;5.220;2023-03-14T07:58:45;12.65;80.24
65707;SHT31;52423;43.512;5.220;2023-03-14T08:01:11;12.65;79.79
65707;SHT31;52423;43.512;5.220;2023-03-14T08:03:36;12.65;79.94
65707;SHT31;52423;43.512;5.220;2023-03-14T08:06:02;12.58;80.39
65707;SHT31;52423;43.512;5.220;2023-03-14T08:08:36;12.73;80.01
65707;SHT31;52423;43.512;5.220;2023-03-14T08:11:03;12.81;80.13
65707;SHT31;52423;43.512;5.220;2023-03-14T08:13:29;12.79;78.93
65707;SHT31;52423;43.512;5.220;2023-03-14T08:15:54;12.78;79.20
65707;SHT31;52423;43.512;5.220;2023-03-14T08:18:20;12.79;79.63
65707;SHT31;52423;43.512;5.220;2023-03-14T08:20:45;12.85;79.89
65707;SHT31;52423;43.512;5.220;2023-03-14T08:23:10;12.79;79.74
65707;SHT31;52423;43.512;5.220;2023-03-14T08:25:42;12.79;80.06
65707;SHT31;52423;43.512;5.220;2023-03-14T08:28:14;12.83;79.05
65707;SHT31;52423;43.512;5.220;2023-03-14T08:30:39;12.92;78.36
65707;SHT31;52423;43.512;5.220;2023-03-14T08:33:04;12.88;80.40
65707;SHT31;52423;43.512;5.220;2023-03-14T08:35:30;12.92;78.60
65707;SHT31;52423;43.512;5.220;2023-03-14T08:37:55;12.82;78.75
65707;SHT31;52423;43.512;5.220;2023-03-14T08:40:20;12.95;78.56
65707;SHT31;52423;43.512;5.220;2023-03-14T08:42:46;12.86;78.88
65707;SHT31;52423;43.512;5.220;2023-03-14T08:45:13;12.93;77.19
65707;SHT31;52423;43.512;5.220;2023-03-14T08:47:43;12.96;77.85
65707;SHT31;52423;43.512;5.220;2023-03-14T08:50:10;12.97;78.54
65707;SHT31;52423;43.512;5.220;2023-03-14T08:52:36;12.97;78.44
65707;SHT31;52423;43.512;5.220;2023-03-14T08:55:03;13.07;77.97
65707;SHT31;52423;43.512;5.220;2023-03-14T08:57:28;13.07;76.66
65707;SHT31;52423;43.512;5.220;2023-03-14T08:59:55;13.10;78.47
65707;SHT31;52423;43.512;5.220;2023-03-14T09:02:21;12.99;78.23
65707;SHT31;52423;43.512;5.220;2023-03-14T09:04:46;12.97;78.10
65707;SHT31;52423;43.512;5.220;2023-03-14T09:07:21;13.00;78.18
65707;SHT31;52423;43.512;5.220;2023-03-14T09:09:46;12.96;77.14
65707;SHT31;52423;43.512;5.220;2023-03-14T09:12:11;13.00;77.81
65707;SHT31;52423;43.512;5.220;2023-03-14T09:14:37;13.09;77.86
65707;SHT31;52423;43.512;5.220;2023-03-14T09:17:04;12.99;77.40
65707;SHT31;52423;43.512;5.220;2023-03-14T09:19:38;13.12;77.68
65707;SHT31;52423;43.512;5.220;2023-03-14T09:22:03;13.10;76.79
65707;SHT31;52423;43.512;5.220;2023-03-14T09:24:29;13.20;76.70
65707;SHT31;52423;43.512;5.220;2023-03-14T09:26:55;13.36;76.37
65707;SHT31;52423;43.512;5.220;2023-03-14T09:29:21;13.37;76.71
65707;SHT31;52423;43.512;5.220;2023-03-14T09:31:55;13.47;75.24
65707;SHT31;52423;43.512;5.220;2023-03-14T09:34:22;13.58;75.52
65707;SHT31;52423;43.512;5.220;2023-03-14T09:36:48;13.60;74.47
65707;SHT31;52423;43.512;5.220;2023-03-14T09:39:13;13.55;72.46
65707;SHT31;52423;43.512;5.220;2023-03-14T09:41:41;13.57;73.92
65707;SHT31;52423;43.512;5.220;2023-03-14T09:44:33;13.60;71.73
65707;SHT31;52423;43.512;5.220;2023-03-14T09:47:03;13.70;71.98
65707;SHT31;52423;43.512;5.220;2023-03-14T09:49:36;13.68;71.62
65707;SHT31;52423;43.512;5.220;2023-03-14T09:55:07;13.70;68.86
65707;SHT31;52423;43.512;5.220;2023-03-14T09:57:45;13.68;68.77
65707;SHT31;52423;43.512;5.220;2023-03-14T10:00:19;13.71;68.91
65707;SHT31;52423;43.512;5.220;2023-03-14T10:02:56;13.82;69.75
65707;SHT31;52423;43.512;5.220;2023-03-14T10:05:31;13.78;69.69
65707;SHT31;52423;43.512;5.220;2023-03-14T10:08:00;13.77;68.70
65707;SHT31;52423;43.512;5.220;2023-03-14T10:10:26;13.89;66.53
65707;SHT31;52423;43.512;5.220;2023-03-14T10:13:12;14.02;67.79
65707;SHT31;52423;43.512;5.220;2023-03-14T10:15:38;13.91;65.51
65707;SHT31;52423;43.512;5.220;2023-03-14T10:18:10;13.97;66.34
65707;SHT31;52423;43.512;5.220;2023-03-14T10:20:48;13.86;64.23
65707;SHT31;52423;43.512;5.220;2023-03-14T10:23:24;13.81;63.54
65707;SHT31;52423;43.512;5.220;2023-03-14T10:28:49;13.95;62.85
65707;SHT31;52423;43.512;5.220;2023-03-14T10:31:16;14.11;62.94
65707;SHT31;52423;43.512;5.220;2023-03-14T10:34:03;14.18;63.97
65707;SHT31;52423;43.512;5.220;2023-03-14T10:36:33;14.25;62.94
65707;SHT31;52423;43.512;5.220;2023-03-14T10:39:22;14.46;61.18
65707;SHT31;52423;43.512;5.220;2023-03-14T10:41:52;14.56;61.78
65707;SHT31;52423;43.512;5.220;2023-03-14T10:44:24;14.44;60.92
65707;SHT31;52423;43.512;5.220;2023-03-14T10:46:59;14.47;61.27
65707;SHT31;52423;43.512;5.220;2023-03-14T10:49:36;14.50;60.47
65707;SHT31;52423;43.512;5.220;2023-03-14T10:52:23;14.50;61.39
65707;SHT31;52423;43.512;5.220;2023-03-14T10:54:57;14.55;59.09
65707;SHT31;52423;43.512;5.220;2023-03-14T10:57:31;14.64;60.63
65707;SHT31;52423;43.512;5.220;2023-03-14T10:59:56;15.07;58.23
65707;SHT31;52423;43.512;5.220;2023-03-14T11:02:28;15.27;58.34
65707;SHT31;52423;43.512;5.220;2023-03-14T11:08:02;15.21;57.59
65707;SHT31;52423;43.512;5.220;2023-03-14T11:10:34;15.11;58.17
65707;SHT31;52423;43.512;5.220;2023-03-14T11:13:22;15.08;57.28
65707;SHT31;52423;43.512;5.220;2023-03-14T11:21:13;15.44;54.63
65707;SHT31;52423;43.512;5.220;2023-03-14T11:27:05;15.72;55.41
65707;SHT31;52423;43.512;5.220;2023-03-14T11:29:41;16.27;54.79
65707;SHT31;52423;43.512;5.220;2023-03-14T11:32:24;16.35;55.06
65707;SHT31;52423;43.512;5.220;2023-03-14T11:34:56;16.09;52.84
65707;SHT31;52423;43.512;5.220;2023-03-14T11:37:28;16.14;54.06
65707;SHT31;52423;43.512;5.220;2023-03-14T11:40:14;15.83;53.39
65707;SHT31;52423;43.512;5.220;2023-03-14T11:45:38;16.18;53.71
65707;SHT31;52423;43.512;5.220;2023-03-14T11:48:16;16.28;53.35
65707;SHT31;52423;43.512;5.220;2023-03-14T11:50:44;16.44;54.17
65707;SHT31;52423;43.512;5.220;2023-03-14T11:53:14;16.34;53.15
65707;SHT31;52423;43.512;5.220;2023-03-14T11:55:42;16.20;52.74
65707;SHT31;52423;43.512;5.220;2023-03-14T11:58:30;16.41;53.66
65707;SHT31;52423;43.512;5.220;2023-03-14T12:01:08;16.51;53.53
65707;SHT31;52423;43.512;5.220;2023-03-14T12:06:26;17.18;52.34
65707;SHT31;52423;43.512;5.220;2023-03-14T12:08:58;17.16;51.12
65707;SHT31;52423;43.512;5.220;2023-03-14T12:11:45;17.27;53.03
65707;SHT31;52423;43.512;5.220;2023-03-14T12:14:29;16.78;48.62
65707;SHT31;52423;43.512;5.220;2023-03-14T12:16:57;17.02;48.67
65707;SHT31;52423;43.512;5.220;2023-03-14T12:22:30;16.76;49.06
65707;SHT31;52423;43.512;5.220;2023-03-14T12:25:13;16.47;51.26
65707;SHT31;52423;43.512;5.220;2023-03-14T12:27:49;16.41;52.18
65707;SHT31;52423;43.512;5.220;2023-03-14T12:30:39;16.34;50.08
65707;SHT31;52423;43.512;5.220;2023-03-14T12:33:29;16.65;49.74
65707;SHT31;52423;43.512;5.220;2023-03-14T12:36:11;17.05;48.36
65707;SHT31;52423;43.512;5.220;2023-03-14T12:44:42;16.89;50.53
65707;SHT31;52423;43.512;5.220;2023-03-14T12:49:53;17.15;46.78
65707;SHT31;52423;43.512;5.220;2023-03-14T12:52:36;17.26;48.62
65707;SHT31;52423;43.512;5.220;2023-03-14T12:55:29;17.39;48.37
65707;SHT31;52423;43.512;5.220;2023-03-14T13:00:54;17.34;46.61
65707;SHT31;52423;43.512;5.220;2023-03-14T13:03:43;17.39;47.12
65707;SHT31;52423;43.512;5.220;2023-03-14T13:09:36;18.00;47.63
65707;SHT31;52423;43.512;5.220;2023-03-14T13:12:16;17.77;45.90
65707;SHT31;52423;43.512;5.220;2023-03-14T13:14:48;17.78;46.54
65707;SHT31;52423;43.512;5.220;2023-03-14T13:17:15;17.74;46.98
65707;SHT31;52423;43.512;5.220;2023-03-14T13:19:50;17.88;44.03
65707;SHT31;52423;43.512;5.220;2023-03-14T13:22:26;17.88;45.98
65707;SHT31;52423;43.512;5.220;2023-03-14T13:24:59;18.09;44.87
65707;SHT31;52423;43.512;5.220;2023-03-14T13:27:25;17.78;44.14
65707;SHT31;52423;43.512;5.220;2023-03-14T13:29:57;17.83;45.45
65707;SHT31;52423;43.512;5.220;2023-03-14T13:32:27;17.85;44.11
65707;SHT31;52423;43.512;5.220;2023-03-14T13:35:15;17.97;44.45
65707;SHT31;52423;43.512;5.220;2023-03-14T13:37:44;18.09;44.06
65707;SHT31;52423;43.512;5.220;2023-03-14T13:40:23;17.94;44.20
65707;SHT31;52423;43.512;5.220;2023-03-14T13:42:59;17.66;43.93
65707;SHT31;52423;43.512;5.220;2023-03-14T13:45:29;17.34;43.16
65707;SHT31;52423;43.512;5.220;2023-03-14T13:47:54;17.39;43.64
65707;SHT31;52423;43.512;5.220;2023-03-14T13:50:20;17.71;43.15
65707;SHT31;52423;43.512;5.220;2023-03-14T13:52:45;17.88;41.90
65707;SHT31;52423;43.512;5.220;2023-03-14T13:55:17;17.85;42.80
65707;SHT31;52423;43.512;5.220;2023-03-14T13:57:53;17.93;44.05
65707;SHT31;52423;43.512;5.220;2023-03-14T14:00:23;17.75;42.58
65707;SHT31;52423;43.512;5.220;2023-03-14T14:02:53;17.88;43.80
65707;SHT31;52423;43.512;5.220;2023-03-14T14:05:19;17.97;43.23
65707;SHT31;52423;43.512;5.220;2023-03-14T14:07:44;18.15;42.12
65707;SHT31;52423;43.512;5.220;2023-03-14T14:10:12;18.29;44.33
65707;SHT31;52423;43.512;5.220;2023-03-14T14:13:00;18.15;41.93
65707;SHT31;52423;43.512;5.220;2023-03-14T14:15:28;18.36;42.69
65707;SHT31;52423;43.512;5.220;2023-03-14T14:18:01;18.39;43.17
65707;SHT31;52423;43.512;5.220;2023-03-14T14:20:33;18.24;41.18
65707;SHT31;52423;43.512;5.220;2023-03-14T14:23:04;18.06;43.29
65707;SHT31;52423;43.512;5.220;2023-03-14T14:25:36;17.75;41.64
65707;SHT31;52423;43.512;5.220;2023-03-14T14:30:46;17.23;41.24
65707;SHT31;52423;43.512;5.220;2023-03-14T14:33:21;17.01;42.62
65707;SHT31;52423;43.512;5.220;2023-03-14T14:35:56;16.84;44.98
65707;SHT31;52423;43.512;5.220;2023-03-14T14:38:22;16.78;45.19
65707;SHT31;52423;43.512;5.220;2023-03-14T14:40:59;16.92;43.76
65707;SHT31;52423;43.512;5.220;2023-03-14T14:43:27;16.96;43.65
65707;SHT31;52423;43.512;5.220;2023-03-14T14:45:54;17.19;41.90
65707;SHT31;52423;43.512;5.220;2023-03-14T14:48:26;17.47;40.42
65707;SHT31;52423;43.512;5.220;2023-03-14T14:50:59;17.77;42.66
65707;SHT31;52423;43.512;5.220;2023-03-14T14:55:59;17.88;41.09
65707;SHT31;52423;43.512;5.220;2023-03-14T14:58:40;17.90;39.35
65707;SHT31;52423;43.512;5.220;2023-03-14T15:03:45;18.05;39.12
65707;SHT31;52423;43.512;5.220;2023-03-14T15:06:13;18.08;37.01
65707;SHT31;52423;43.512;5.220;2023-03-14T15:08:39;18.09;35.76
65707;SHT31;52423;43.512;5.220;2023-03-14T15:11:05;18.15;35.02
65707;SHT31;52423;43.512;5.220;2023-03-14T15:13:33;18.14;36.01
65707;SHT31;52423;43.512;5.220;2023-03-14T15:16:01;18.09;36.44
65707;SHT31;52423;43.512;5.220;2023-03-14T15:18:28;18.11;35.48
65707;SHT31;52423;43.512;5.220;2023-03-14T15:20:54;18.15;34.75
65707;SHT31;52423;43.512;5.220;2023-03-14T15:23:20;18.26;34.94
65707;SHT31;52423;43.512;5.220;2023-03-14T15:25:47;18.32;35.57
65707;SHT31;52423;43.512;5.220;2023-03-14T15:28:22;18.25;33.73
65707;SHT31;52423;43.512;5.220;2023-03-14T15:30:56;18.38;33.38
65707;SHT31;52423;43.512;5.220;2023-03-14T15:33:28;18.34;33.95
65707;SHT31;52423;43.512;5.220;2023-03-14T15:35:55;18.16;33.95
65707;SHT31;52423;43.512;5.220;2023-03-14T15:38:22;18.05;34.40
65707;SHT31;52423;43.512;5.220;2023-03-14T15:40:51;18.04;34.13
65707;SHT31;52423;43.512;5.220;2023-03-14T15:43:17;18.02;34.54
65707;SHT31;52423;43.512;5.220;2023-03-14T15:45:43;17.84;34.68
65707;SHT31;52423;43.512;5.220;2023-03-14T15:48:19;17.75;34.46
65707;SHT31;52423;43.512;5.220;2023-03-14T15:50:46;18.01;34.45
65707;SHT31;52423;43.512;5.220;2023-03-14T15:53:14;17.94;35.01
65707;SHT31;52423;43.512;5.220;2023-03-14T15:55:40;18.01;33.86
65707;SHT31;52423;43.512;5.220;2023-03-14T15:58:19;17.94;34.60
65707;SHT31;52423;43.512;5.220;2023-03-14T16:00:45;17.88;35.50
65707;SHT31;52423;43.512;5.220;2023-03-14T16:03:10;17.81;36.13
65707;SHT31;52423;43.512;5.220;2023-03-14T16:05:39;17.43;35.62
65707;SHT31;52423;43.512;5.220;2023-03-14T16:08:05;17.16;36.71
65707;SHT31;52423;43.512;5.220;2023-03-14T16:10:36;16.92;40.02
65707;SHT31;52423;43.512;5.220;2023-03-14T16:13:03;16.74;40.77
65707;SHT31;52423;43.512;5.220;2023-03-14T16:15:29;16.58;41.97
65707;SHT31;52423;43.512;5.220;2023-03-14T16:17:55;16.35;43.14
65707;SHT31;52423;43.512;5.220;2023-03-14T16:20:21;16.13;43.93
65707;SHT31;52423;43.512;5.220;2023-03-14T16:22:47;16.03;43.30
65707;SHT31;52423;43.512;5.220;2023-03-14T16:25:12;15.97;43.10
65707;SHT31;52423;43.512;5.220;2023-03-14T16:27:38;15.90;42.59
65707;SHT31;52423;43.512;5.220;2023-03-14T16:30:04;15.81;42.68
65707;SHT31;52423;43.512;5.220;2023-03-14T16:32:30;15.78;42.38
65707;SHT31;52423;43.512;5.220;2023-03-14T16:34:55;15.72;42.24
65707;SHT31;52423;43.512;5.220;2023-03-14T16:37:24;15.65;42.91
65707;SHT31;52423;43.512;5.220;2023-03-14T16:39:52;15.66;42.20
65707;SHT31;52423;43.512;5.220;2023-03-14T16:42:17;15.61;42.30
65707;SHT31;52423;43.512;5.220;2023-03-14T16:44:42;15.61;42.71
65707;SHT31;52423;43.512;5.220;2023-03-14T16:47:20;15.53;42.35